Time;durP1;ratioP1;P1;durP2;ratioP2;P2;SDS_P1;SDS_P2;PMS_P1;PMS_P2;Temp;Humidity;BMP_temperature;BMP_pressure;BME280_temperature;BME280_humidity;BME280_pressure;Samples;Min_cycle;Max_cycle;Signal;HPM_P1;HPM_P2
2023/03/30 00:01:29;;;;;;;8.00;1.83;;;11.60;99.90;;;;;;4990626;28;20214;-66
2023/03/30 00:03:54;;;;;;;14.40;2.17;;;11.60;99.90;;;;;;4990975;28;20202;-66
2023/03/30 00:06:21;;;;;;;15.73;2.57;;;11.60;99.90;;;;;;4990709;28;20530;-66
2023/03/30 00:08:52;;;;;;;22.00;3.13;;;11.50;99.90;;;;;;4990916;28;20249;-66
2023/03/30 00:11:18;;;;;;;13.27;2.27;;;11.50;99.90;;;;;;4991577;28;20179;-66
2023/03/30 00:13:44;;;;;;;16.43;3.07;;;11.40;99.90;;;;;;4991023;28;20190;-66
2023/03/30 00:16:13;;;;;;;11.17;1.97;;;11.30;99.90;;;;;;4990579;28;20179;-68
2023/03/30 00:18:39;;;;;;;18.33;2.20;;;11.30;99.90;;;;;;4991718;28;20183;-66
2023/03/30 00:21:08;;;;;;;16.27;1.90;;;11.30;99.90;;;;;;4973362;28;20180;-66
2023/03/30 00:23:35;;;;;;;10.43;1.73;;;;;;;;;;4990894;28;20198;-66
2023/03/30 00:26:00;;;;;;;16.50;1.97;;;11.30;99.90;;;;;;4990341;28;20201;-65
2023/03/30 00:28:29;;;;;;;17.50;2.10;;;11.20;99.90;;;;;;4990474;28;20623;-65
2023/03/30 00:30:55;;;;;;;13.60;1.97;;;11.20;99.90;;;;;;4991055;28;20179;-65
2023/03/30 00:33:21;;;;;;;15.17;2.33;;;11.20;99.90;;;;;;4991154;28;20171;-65
2023/03/30 00:35:54;;;;;;;18.17;2.57;;;11.10;99.90;;;;;;4991298;28;20305;-66
2023/03/30 00:38:20;;;;;;;13.37;2.10;;;;;;;;;;4991512;28;20183;-66
2023/03/30 00:40:51;;;;;;;21.50;2.17;;;11.10;99.90;;;;;;4991173;28;20209;-67
2023/03/30 00:43:17;;;;;;;20.80;3.33;;;11.20;99.90;;;;;;4991383;28;20661;-66
2023/03/30 00:45:42;;;;;;;16.53;2.13;;;;;;;;;;4990207;28;20167;-66
2023/03/30 00:48:22;;;;;;;19.13;2.73;;;11.20;99.90;;;;;;4991062;28;20215;-66
2023/03/30 00:51:08;;;;;;;13.93;2.20;;;11.50;99.90;;;;;;4990327;28;20183;-66
2023/03/30 00:53:39;;;;;;;18.57;2.27;;;11.40;99.90;;;;;;4991077;28;20192;-66
2023/03/30 00:56:07;;;;;;;15.73;3.33;;;11.40;99.90;;;;;;4989806;28;20672;-66
2023/03/30 00:58:35;;;;;;;25.17;2.87;;;11.40;99.90;;;;;;4990995;28;20258;-67
2023/03/30 01:01:05;;;;;;;21.40;2.77;;;11.40;99.90;;;;;;4978793;28;20681;-67
2023/03/30 01:03:33;;;;;;;23.60;3.20;;;11.40;99.90;;;;;;4991064;28;20258;-67
2023/03/30 01:06:04;;;;;;;19.43;3.23;;;11.40;99.90;;;;;;4974365;28;20618;-66
2023/03/30 01:08:33;;;;;;;16.33;2.67;;;11.40;99.90;;;;;;4990581;28;20203;-66
2023/03/30 01:11:00;;;;;;;21.03;2.97;;;11.40;99.90;;;;;;4990632;28;20179;-66
2023/03/30 01:13:27;;;;;;;17.30;2.80;;;11.40;99.90;;;;;;4991217;28;20258;-66
2023/03/30 01:16:06;;;;;;;19.07;2.83;;;11.40;99.90;;;;;;4990714;28;20654;-66
2023/03/30 01:18:32;;;;;;;28.20;3.43;;;11.40;99.90;;;;;;4989041;28;20179;-66
2023/03/30 01:21:35;;;;;;;16.23;2.40;;;11.40;99.90;;;;;;4990457;28;20225;-66
2023/03/30 01:24:16;;;;;;;20.07;2.80;;;11.40;99.90;;;;;;4990333;28;20258;-66
2023/03/30 01:27:29;;;;;;;17.87;2.30;;;11.40;99.90;;;;;;4975795;28;20184;-66
2023/03/30 01:30:06;;;;;;;20.50;2.00;;;11.40;99.90;;;;;;4915732;29;20190;-66
2023/03/30 01:33:15;;;;;;;17.97;2.50;;;11.40;99.90;;;;;;4991073;28;20222;-67
2023/03/30 01:35:50;;;;;;;12.60;2.57;;;11.40;99.90;;;;;;4993079;28;20306;-67
2023/03/30 01:38:46;;;;;;;14.77;2.60;;;11.40;99.90;;;;;;4993968;28;20198;-66
2023/03/30 01:41:33;;;;;;;17.40;2.60;;;11.30;99.90;;;;;;4994278;28;20186;-67
2023/03/30 01:44:17;;;;;;;15.30;2.37;;;11.30;99.90;;;;;;4994411;28;20175;-66
2023/03/30 01:47:05;;;;;;;22.10;2.90;;;11.30;99.90;;;;;;4994001;28;20179;-66
2023/03/30 01:49:36;;;;;;;11.70;2.23;;;11.30;99.90;;;;;;4994028;28;20207;-66
2023/03/30 01:52:20;;;;;;;25.40;2.73;;;11.30;99.90;;;;;;4992615;28;20179;-66
2023/03/30 01:55:03;;;;;;;15.00;2.33;;;11.30;99.90;;;;;;4976762;28;20499;-67
2023/03/30 01:57:43;;;;;;;19.07;2.57;;;11.30;99.90;;;;;;4993266;28;20239;-65
2023/03/30 02:00:13;;;;;;;19.73;2.40;;;11.30;99.90;;;;;;4993654;28;20190;-66
2023/03/30 02:02:42;;;;;;;16.00;2.73;;;11.30;99.90;;;;;;4993229;28;20210;-66
2023/03/30 02:05:10;;;;;;;20.83;3.10;;;11.30;99.90;;;;;;4993342;28;20180;-66
2023/03/30 02:07:38;;;;;;;21.03;2.90;;;11.30;99.90;;;;;;4993048;28;20239;-66
2023/03/30 02:10:08;;;;;;;16.50;2.60;;;11.30;99.90;;;;;;4975245;28;20187;-66
2023/03/30 02:12:35;;;;;;;18.90;2.83;;;11.20;99.90;;;;;;4992799;28;20190;-66
2023/03/30 02:15:06;;;;;;;14.43;2.40;;;11.30;99.90;;;;;;4992279;28;20214;-66
2023/03/30 02:17:34;;;;;;;16.20;2.80;;;11.30;99.90;;;;;;4985144;28;20585;-66
2023/03/30 02:20:00;;;;;;;23.83;2.90;;;11.30;99.90;;;;;;4992861;28;20179;-66
2023/03/30 02:22:28;;;;;;;29.03;3.13;;;11.30;99.90;;;;;;4990434;28;20658;-66
2023/03/30 02:24:55;;;;;;;20.07;2.73;;;11.20;99.90;;;;;;4992943;28;20175;-67
2023/03/30 02:27:22;;;;;;;20.60;3.47;;;11.30;99.90;;;;;;4992146;28;20670;-67
2023/03/30 02:29:48;;;;;;;17.73;2.87;;;11.20;99.90;;;;;;4992577;28;20175;-67
2023/03/30 02:32:19;;;;;;;16.60;2.70;;;11.30;99.90;;;;;;4992401;28;20505;-67
2023/03/30 02:35:07;;;;;;;16.30;2.53;;;11.30;99.90;;;;;;4988416;28;20194;-67
2023/03/30 02:38:05;;;;;;;20.37;2.17;;;11.20;99.90;;;;;;4986551;28;20241;-66
2023/03/30 02:40:43;;;;;;;20.97;2.37;;;11.20;99.90;;;;;;4980990;28;20277;-66
2023/03/30 02:43:32;;;;;;;21.43;3.17;;;11.30;99.90;;;;;;4992110;28;20254;-66
2023/03/30 02:46:36;;;;;;;20.77;2.57;;;11.20;99.90;;;;;;4992433;28;20187;-66
2023/03/30 02:49:25;;;;;;;21.50;2.97;;;11.30;99.90;;;;;;4992436;28;20253;-66
2023/03/30 02:52:14;;;;;;;19.77;2.90;;;11.30;99.90;;;;;;4991980;28;20175;-66
2023/03/30 02:54:48;;;;;;;22.90;3.20;;;11.30;99.90;;;;;;4981435;28;20273;-66
2023/03/30 02:57:27;;;;;;;24.77;2.80;;;11.40;99.90;;;;;;4991897;28;20210;-66
2023/03/30 03:00:11;;;;;;;16.57;2.63;;;11.50;99.90;;;;;;4991545;28;20231;-66
2023/03/30 03:02:45;;;;;;;18.37;2.93;;;11.30;99.90;;;;;;4991932;28;20233;-65
2023/03/30 03:05:13;;;;;;;22.50;2.70;;;11.30;99.90;;;;;;4991470;28;20175;-67
2023/03/30 03:07:39;;;;;;;23.63;3.00;;;11.20;99.90;;;;;;4992183;28;20235;-67
2023/03/30 03:10:06;;;;;;;17.50;2.50;;;11.30;99.90;;;;;;4992106;28;20209;-66
2023/03/30 03:12:32;;;;;;;23.53;3.20;;;11.30;99.90;;;;;;4991947;28;20254;-66
2023/03/30 03:15:00;;;;;;;23.43;3.47;;;11.30;99.90;;;;;;4992310;28;20183;-66
2023/03/30 03:17:33;;;;;;;17.73;3.03;;;11.30;99.90;;;;;;4992428;28;20603;-66
2023/03/30 03:20:00;;;;;;;22.73;3.67;;;11.30;99.90;;;;;;4992365;28;20176;-66
2023/03/30 03:22:26;;;;;;;22.67;3.30;;;11.30;99.90;;;;;;4992807;28;20176;-66
2023/03/30 03:24:52;;;;;;;23.30;3.03;;;11.30;99.90;;;;;;4992600;28;20237;-66
2023/03/30 03:27:17;;;;;;;22.73;3.57;;;11.30;99.90;;;;;;4990529;28;20175;-67
2023/03/30 03:29:43;;;;;;;24.23;3.03;;;;;;;;;;4990813;28;20184;-67
2023/03/30 03:32:09;;;;;;;18.37;2.83;;;11.30;99.90;;;;;;4990482;28;20206;-68
2023/03/30 03:34:34;;;;;;;22.20;3.17;;;11.30;99.90;;;;;;4990656;28;20179;-68
2023/03/30 03:37:00;;;;;;;26.67;3.00;;;11.30;99.90;;;;;;4990336;28;20722;-67
2023/03/30 03:39:25;;;;;;;23.30;3.43;;;11.30;99.90;;;;;;4990092;28;20192;-67
2023/03/30 03:41:51;;;;;;;17.93;3.27;;;11.30;99.90;;;;;;4989433;28;20175;-67
2023/03/30 03:44:17;;;;;;;20.63;3.37;;;11.30;99.90;;;;;;4990288;28;20184;-67
2023/03/30 03:46:42;;;;;;;21.70;3.20;;;11.40;99.90;;;;;;4989912;28;20184;-68
2023/03/30 03:49:08;;;;;;;29.57;4.07;;;11.40;99.90;;;;;;4989753;28;20238;-67
2023/03/30 03:51:34;;;;;;;22.87;2.67;;;11.10;99.90;;;;;;4983891;28;20292;-67
2023/03/30 03:54:00;;;;;;;21.77;3.20;;;11.30;99.90;;;;;;4977409;28;20183;-67
2023/03/30 03:56:26;;;;;;;26.90;3.37;;;11.40;99.90;;;;;;4990819;28;20728;-67
2023/03/30 03:58:52;;;;;;;27.47;3.17;;;11.40;99.90;;;;;;4991545;28;20716;-67
2023/03/30 04:01:18;;;;;;;24.13;3.33;;;11.40;99.90;;;;;;4990608;28;20212;-67
2023/03/30 04:03:44;;;;;;;29.87;3.63;;;11.30;99.90;;;;;;4991895;28;20203;-67
2023/03/30 04:06:10;;;;;;;25.47;3.03;;;11.30;99.90;;;;;;4992077;28;20183;-67
2023/03/30 04:08:36;;;;;;;21.87;3.30;;;11.20;99.90;;;;;;4991259;28;20218;-67
2023/03/30 04:11:10;;;;;;;25.57;3.33;;;11.20;99.90;;;;;;4990683;28;20646;-66
2023/03/30 04:13:39;;;;;;;28.87;4.13;;;11.10;99.90;;;;;;4990167;28;20197;-66
2023/03/30 04:16:06;;;;;;;25.77;3.60;;;11.20;99.90;;;;;;4990057;28;20178;-66
2023/03/30 04:18:32;;;;;;;34.67;3.57;;;10.90;99.90;;;;;;4990982;28;20209;-66
2023/03/30 04:21:01;;;;;;;25.97;3.30;;;10.90;99.90;;;;;;4991405;28;20175;-66
2023/03/30 04:23:32;;;;;;;22.93;3.40;;;10.90;99.90;;;;;;4990508;28;20242;-66
2023/03/30 04:26:01;;;;;;;24.93;3.23;;;10.90;99.90;;;;;;4990298;28;20249;-66
2023/03/30 04:28:28;;;;;;;19.53;3.33;;;10.80;99.90;;;;;;4990818;28;20233;-66
2023/03/30 04:30:58;;;;;;;30.73;3.47;;;10.80;99.90;;;;;;4991346;28;20261;-66
2023/03/30 04:33:24;;;;;;;30.37;3.57;;;10.80;99.90;;;;;;4991325;28;20664;-66
2023/03/30 04:35:50;;;;;;;23.97;3.93;;;10.80;99.90;;;;;;4990194;28;20226;-65
2023/03/30 04:38:21;;;;;;;18.33;2.67;;;10.80;99.90;;;;;;4991150;28;20544;-65
2023/03/30 04:40:47;;;;;;;23.63;3.50;;;10.80;99.90;;;;;;4990744;28;20264;-65
2023/03/30 04:43:13;;;;;;;18.30;2.80;;;10.80;99.90;;;;;;4991237;28;20175;-65
2023/03/30 04:45:39;;;;;;;18.10;2.93;;;10.80;99.90;;;;;;4990044;28;20179;-65
2023/03/30 04:48:05;;;;;;;20.03;2.57;;;10.70;99.90;;;;;;4990341;28;20215;-66
2023/03/30 04:50:30;;;;;;;18.03;3.60;;;10.70;99.90;;;;;;4989971;28;20655;-65
2023/03/30 04:52:57;;;;;;;22.50;3.53;;;;;;;;;;4989859;28;20175;-65
2023/03/30 04:55:22;;;;;;;23.43;3.03;;;10.70;99.90;;;;;;4989894;28;20713;-65
2023/03/30 04:57:48;;;;;;;19.23;3.30;;;10.70;99.90;;;;;;4989935;28;20179;-65
2023/03/30 05:00:14;;;;;;;20.63;3.67;;;10.60;99.90;;;;;;4990565;28;20362;-65
2023/03/30 05:02:40;;;;;;;27.80;3.73;;;10.70;99.90;;;;;;4994458;28;20183;-66
2023/03/30 05:05:06;;;;;;;25.90;3.33;;;10.70;99.90;;;;;;4994613;28;20578;-66
2023/03/30 05:07:32;;;;;;;24.27;3.43;;;10.80;99.90;;;;;;4993535;28;20226;-65
2023/03/30 05:09:57;;;;;;;20.67;3.23;;;10.70;99.90;;;;;;4994329;28;20183;-66
2023/03/30 05:12:23;;;;;;;20.60;3.33;;;11.20;99.90;;;;;;4994036;28;20652;-66
2023/03/30 05:14:49;;;;;;;20.47;3.40;;;10.80;99.90;;;;;;4977271;28;20666;-66
2023/03/30 05:17:14;;;;;;;19.97;2.73;;;10.70;99.90;;;;;;4994778;28;20183;-66
2023/03/30 05:19:40;;;;;;;27.93;3.47;;;10.70;99.90;;;;;;4994313;28;20638;-69
2023/03/30 05:22:05;;;;;;;21.30;4.00;;;10.70;99.90;;;;;;4993774;28;20318;-65
2023/03/30 05:24:31;;;;;;;16.00;2.80;;;10.70;99.90;;;;;;4994392;28;20186;-66
2023/03/30 05:26:57;;;;;;;17.77;3.03;;;10.70;99.90;;;;;;4994230;28;20747;-66
2023/03/30 05:29:23;;;;;;;21.37;2.80;;;10.70;99.90;;;;;;4994150;28;20219;-65
2023/03/30 05:31:48;;;;;;;18.20;3.17;;;10.70;99.90;;;;;;4993139;28;20171;-65
2023/03/30 05:34:14;;;;;;;24.83;3.70;;;10.60;99.90;;;;;;4993421;28;20175;-66
2023/03/30 05:36:40;;;;;;;15.83;2.47;;;10.60;99.90;;;;;;4993764;28;20254;-66
2023/03/30 05:39:06;;;;;;;17.97;2.23;;;10.70;99.90;;;;;;4994120;28;20639;-66
2023/03/30 05:41:32;;;;;;;21.50;3.00;;;10.70;99.90;;;;;;4992788;28;20258;-66
2023/03/30 05:43:57;;;;;;;21.23;3.13;;;10.70;99.90;;;;;;4992963;28;20183;-66
2023/03/30 05:46:23;;;;;;;14.53;2.20;;;10.80;99.90;;;;;;4992948;28;20175;-66
2023/03/30 05:48:49;;;;;;;17.10;2.60;;;10.70;99.90;;;;;;4993288;28;20215;-66
2023/03/30 05:51:14;;;;;;;16.83;2.53;;;10.70;99.90;;;;;;4993504;28;20173;-66
2023/03/30 05:53:40;;;;;;;21.80;2.83;;;10.70;99.90;;;;;;4993440;28;20217;-66
2023/03/30 05:56:06;;;;;;;24.13;3.27;;;10.70;99.90;;;;;;4993098;28;20186;-66
2023/03/30 05:58:32;;;;;;;18.03;2.87;;;10.90;99.90;;;;;;4993018;28;20167;-67
2023/03/30 06:00:58;;;;;;;20.00;2.87;;;10.70;99.90;;;;;;4992761;28;20175;-67
2023/03/30 06:03:23;;;;;;;16.40;3.00;;;10.70;99.90;;;;;;4993238;28;20536;-67
2023/03/30 06:05:52;;;;;;;18.83;2.93;;;10.60;99.90;;;;;;4993874;28;20168;-67
2023/03/30 06:08:19;;;;;;;15.53;1.97;;;10.60;99.90;;;;;;4976152;28;20282;-67
2023/03/30 06:10:51;;;;;;;15.97;2.70;;;10.60;99.90;;;;;;4992824;28;20638;-66
2023/03/30 06:13:17;;;;;;;14.23;2.13;;;10.60;99.90;;;;;;4991084;28;20179;-67
2023/03/30 06:15:44;;;;;;;15.70;2.17;;;10.60;99.90;;;;;;4993101;28;20171;-66
2023/03/30 06:18:10;;;;;;;17.13;2.20;;;10.70;99.90;;;;;;4993440;28;20285;-66
2023/03/30 06:20:36;;;;;;;9.93;1.93;;;10.60;99.90;;;;;;4992567;28;20270;-66
2023/03/30 06:23:02;;;;;;;13.50;2.23;;;10.60;99.90;;;;;;4993945;28;20188;-66
2023/03/30 06:25:28;;;;;;;17.27;2.70;;;10.50;99.90;;;;;;4993148;28;20621;-66
2023/03/30 06:27:54;;;;;;;12.77;2.50;;;10.60;99.90;;;;;;4992751;28;20203;-66
2023/03/30 06:30:21;;;;;;;14.00;2.47;;;10.60;99.90;;;;;;4992296;28;20187;-66
2023/03/30 06:32:47;;;;;;;12.00;2.10;;;10.60;99.90;;;;;;4992635;28;20163;-66
2023/03/30 06:35:14;;;;;;;20.43;2.83;;;11.00;99.90;;;;;;4992016;28;20226;-66
2023/03/30 06:37:40;;;;;;;14.80;2.57;;;;;;;;;;4992378;28;20268;-68
2023/03/30 06:40:12;;;;;;;17.90;3.13;;;10.80;99.90;;;;;;4992402;28;20176;-67
2023/03/30 06:42:38;;;;;;;18.83;3.20;;;10.90;99.90;;;;;;4992956;28;20665;-67
2023/03/30 06:45:04;;;;;;;19.10;2.87;;;10.90;99.90;;;;;;4993101;28;20282;-67
2023/03/30 06:47:30;;;;;;;18.57;3.07;;;10.80;99.90;;;;;;4993081;28;20194;-67
2023/03/30 06:49:56;;;;;;;21.20;3.43;;;;;;;;;;4992368;28;20191;-67
2023/03/30 06:52:21;;;;;;;11.73;2.47;;;10.90;99.90;;;;;;4979255;28;20591;-66
2023/03/30 06:54:47;;;;;;;19.00;2.70;;;11.00;99.90;;;;;;4985432;28;20226;-67
2023/03/30 06:57:12;;;;;;;22.13;3.20;;;11.00;99.90;;;;;;4992732;28;20226;-66
2023/03/30 06:59:38;;;;;;;14.93;3.27;;;11.10;99.90;;;;;;4992244;28;20939;-67
2023/03/30 07:02:04;;;;;;;25.90;3.53;;;11.00;99.90;;;;;;4974956;28;20274;-68
2023/03/30 07:04:29;;;;;;;25.17;3.43;;;11.00;99.90;;;;;;4992024;28;20597;-70
2023/03/30 07:06:56;;;;;;;25.07;3.00;;;9.90;99.90;;;;;;4992553;28;20266;-69
2023/03/30 07:09:23;;;;;;;27.17;3.97;;;11.20;99.90;;;;;;4992195;28;20261;-69
2023/03/30 07:11:49;;;;;;;24.23;3.70;;;11.20;99.90;;;;;;4992642;28;20202;-68
2023/03/30 07:14:15;;;;;;;15.47;2.43;;;11.20;99.90;;;;;;4986037;28;20176;-70
2023/03/30 07:16:41;;;;;;;18.40;2.73;;;11.00;99.90;;;;;;4991760;28;20187;-71
2023/03/30 07:19:06;;;;;;;13.00;2.73;;;11.00;99.90;;;;;;4977066;28;20183;-68
2023/03/30 07:21:32;;;;;;;16.00;2.93;;;13.20;99.90;;;;;;4992048;28;20194;-67
2023/03/30 07:24:01;;;;;;;16.13;2.10;;;11.00;99.90;;;;;;4992390;28;20561;-68
2023/03/30 07:26:28;;;;;;;13.13;2.17;;;11.00;99.90;;;;;;4992487;28;20627;-68
2023/03/30 07:28:55;;;;;;;16.00;3.00;;;11.00;99.90;;;;;;4991466;28;20852;-67
2023/03/30 07:31:23;;;;;;;13.03;2.20;;;11.00;99.90;;;;;;4991493;28;20228;-68
2023/03/30 07:33:49;;;;;;;17.30;2.53;;;11.00;99.90;;;;;;4991794;28;20704;-68
2023/03/30 07:36:15;;;;;;;11.33;1.93;;;11.00;99.90;;;;;;4970616;28;20232;-68
2023/03/30 07:38:42;;;;;;;11.07;2.40;;;;;;;;;;4959737;28;20176;-68
2023/03/30 07:41:09;;;;;;;12.33;1.97;;;11.10;99.90;;;;;;4951550;28;20255;-68
2023/03/30 07:43:35;;;;;;;9.67;2.20;;;11.10;99.90;;;;;;4952117;28;20670;-67
2023/03/30 07:46:01;;;;;;;14.67;2.80;;;11.20;99.90;;;;;;4952214;28;20187;-68
2023/03/30 07:48:26;;;;;;;12.20;2.10;;;11.20;99.90;;;;;;4952108;28;20212;-69
2023/03/30 07:51:00;;;;;;;15.00;1.80;;;11.50;99.90;;;;;;4952687;28;20180;-69
2023/03/30 07:53:25;;;;;;;15.83;2.73;;;11.40;99.90;;;;;;4952291;28;20173;-69
2023/03/30 07:55:51;;;;;;;16.67;2.90;;;11.60;99.90;;;;;;4960210;28;20745;-68
2023/03/30 07:58:17;;;;;;;17.80;3.07;;;11.80;99.90;;;;;;4971206;28;20210;-69
2023/03/30 08:00:43;;;;;;;18.57;2.90;;;11.80;99.90;;;;;;4971645;28;20322;-70
2023/03/30 08:03:10;;;;;;;13.13;2.90;;;11.80;99.90;;;;;;4971995;28;20180;-70
2023/03/30 08:05:36;;;;;;;16.13;3.07;;;11.80;99.90;;;;;;4970714;28;20175;-69
2023/03/30 08:08:02;;;;;;;20.53;3.40;;;11.90;99.90;;;;;;4971304;28;20582;-69
2023/03/30 08:10:28;;;;;;;19.03;3.27;;;12.00;99.90;;;;;;4972524;28;20172;-69
2023/03/30 08:12:54;;;;;;;26.17;3.50;;;;;;;;;;4971299;28;20180;-69
2023/03/30 08:15:20;;;;;;;26.97;3.67;;;12.30;99.90;;;;;;4972477;28;20188;-69
2023/03/30 08:17:46;;;;;;;21.20;3.03;;;12.50;99.90;;;;;;4972184;28;20179;-68
2023/03/30 08:20:11;;;;;;;22.13;3.40;;;12.50;99.90;;;;;;4971698;28;20203;-69
2023/03/30 08:22:37;;;;;;;23.00;3.60;;;12.60;99.90;;;;;;4972012;28;20178;-69
2023/03/30 08:25:04;;;;;;;22.67;3.30;;;12.60;99.90;;;;;;4971960;28;20180;-69
2023/03/30 08:27:30;;;;;;;14.93;3.40;;;12.80;99.90;;;;;;4970544;28;20262;-69
2023/03/30 08:29:56;;;;;;;24.57;4.53;;;12.70;99.90;;;;;;4971345;28;20278;-69
2023/03/30 08:32:21;;;;;;;29.83;4.03;;;12.70;99.90;;;;;;4971841;28;20711;-68
2023/03/30 08:34:47;;;;;;;28.87;3.73;;;12.70;99.90;;;;;;4970970;28;20551;-69
2023/03/30 08:37:12;;;;;;;31.57;4.07;;;12.70;99.90;;;;;;4990645;28;20602;-68
2023/03/30 08:39:38;;;;;;;31.10;3.63;;;13.50;99.90;;;;;;4991313;28;20167;-68
2023/03/30 08:42:36;;;;;;;27.37;4.17;;;13.20;99.90;;;;;;4990486;28;20194;-69
2023/03/30 08:45:04;;;;;;;23.37;4.27;;;13.10;99.90;;;;;;4947974;28;20194;-69
2023/03/30 08:47:36;;;;;;;23.93;4.37;;;13.00;99.90;;;;;;4990957;28;20183;-68
2023/03/30 08:50:18;;;;;;;26.43;4.13;;;13.00;99.90;;;;;;4972273;28;20175;-69
2023/03/30 08:52:44;;;;;;;27.27;4.37;;;13.00;99.90;;;;;;4990584;28;20163;-68
2023/03/30 08:55:29;;;;;;;21.93;3.90;;;13.10;99.90;;;;;;4989750;28;20175;-69
2023/03/30 08:58:23;;;;;;;29.63;4.17;;;13.20;99.90;;;;;;4991387;28;20182;-69
2023/03/30 09:01:02;;;;;;;31.23;4.47;;;13.10;99.90;;;;;;4991204;28;20262;-70
2023/03/30 09:03:33;;;;;;;32.37;3.97;;;13.10;99.90;;;;;;4990138;28;20186;-70
2023/03/30 09:06:20;;;;;;;24.37;4.33;;;13.40;99.90;;;;;;4991147;28;20180;-71
2023/03/30 09:08:47;;;;;;;33.13;4.43;;;13.50;99.90;;;;;;4989638;28;20677;-70
2023/03/30 09:11:20;;;;;;;27.93;4.67;;;13.40;99.90;;;;;;4990008;28;20190;-70
2023/03/30 09:13:48;;;;;;;28.20;4.17;;;13.80;99.90;;;;;;4990234;28;20631;-70
2023/03/30 09:16:24;;;;;;;35.95;5.20;;;14.70;99.90;;;;;;4985903;28;20225;-70
2023/03/30 09:18:53;;;;;;;24.85;4.40;;;15.10;99.90;;;;;;4990447;28;20179;-71
2023/03/30 09:21:23;;;;;;;30.10;4.75;;;15.80;99.90;;;;;;4990240;28;20266;-70
2023/03/30 09:23:57;;;;;;;37.67;6.10;;;16.00;99.90;;;;;;4989748;28;20175;-70
2023/03/30 09:26:33;;;;;;;24.50;4.13;;;15.20;99.90;;;;;;4990061;28;20167;-71
2023/03/30 09:29:37;;;;;;;36.25;5.10;;;15.00;99.90;;;;;;4990415;28;20227;-71
2023/03/30 09:32:30;;;;;;;25.67;3.83;;;14.70;99.90;;;;;;4945334;28;20195;-71
2023/03/30 09:35:11;;;;;;;35.67;5.40;;;14.10;99.90;;;;;;4984418;28;20187;-69
2023/03/30 09:37:37;;;;;;;21.80;3.70;;;13.90;99.90;;;;;;4975708;28;20183;-69
2023/03/30 09:40:30;;;;;;;38.77;4.43;;;13.00;99.90;;;;;;4989862;28;20175;-69
2023/03/30 09:43:23;;;;;;;31.20;4.70;;;13.30;99.90;;;;;;4984779;28;20202;-70
2023/03/30 09:45:48;;;;;;;31.43;4.53;;;13.10;99.90;;;;;;4983291;28;20199;-70
2023/03/30 09:48:15;;;;;;;25.20;4.63;;;13.30;99.90;;;;;;4991164;28;20246;-69
2023/03/30 09:50:43;;;;;;;31.00;4.63;;;13.30;99.90;;;;;;4989327;28;20187;-69
2023/03/30 09:53:24;;;;;;;29.90;5.07;;;13.30;99.90;;;;;;4993864;28;20626;-70
2023/03/30 09:56:06;;;;;;;28.90;4.63;;;13.30;99.90;;;;;;4979258;28;20195;-70
2023/03/30 09:58:35;;;;;;;31.87;5.43;;;13.20;99.90;;;;;;4980984;28;20207;-69
2023/03/30 10:01:12;;;;;;;19.57;4.07;;;13.20;99.90;;;;;;4993555;28;20221;-69
2023/03/30 10:03:42;;;;;;;27.43;5.00;;;13.30;99.90;;;;;;4987002;28;20665;-69
2023/03/30 10:06:18;;;;;;;29.07;4.10;;;13.20;99.90;;;;;;4993127;28;20222;-68
2023/03/30 10:08:53;;;;;;;24.53;4.07;;;13.40;99.90;;;;;;4974073;28;20207;-71
2023/03/30 10:11:45;;;;;;;23.47;3.53;;;14.40;99.90;;;;;;4974149;28;20176;-77
2023/03/30 10:14:34;;;;;;;22.40;4.87;;;16.70;99.90;;;;;;4974552;28;20170;-68
2023/03/30 10:17:01;;;;;;;21.73;3.30;;;16.30;99.90;;;;;;4979010;28;20223;-68
2023/03/30 10:19:28;;;;;;;17.55;3.67;;;16.40;99.90;;;;;;4993257;28;20187;-68
2023/03/30 10:21:56;;;;;;;26.17;4.35;;;16.60;99.90;;;;;;4992592;28;20262;-68
2023/03/30 10:24:32;;;;;;;28.90;3.83;;;15.80;99.90;;;;;;4993314;28;20545;-68
2023/03/30 10:27:12;;;;;;;25.77;3.97;;;16.20;99.90;;;;;;4990802;28;20466;-69
2023/03/30 10:29:45;;;;;;;17.10;3.33;;;15.50;99.90;;;;;;4974178;28;20264;-68
2023/03/30 10:32:29;;;;;;;29.58;4.78;;;15.90;99.90;;;;;;4988237;28;20329;-68
2023/03/30 10:35:00;;;;;;;28.73;4.57;;;16.00;99.90;;;;;;4992974;28;20179;-69
2023/03/30 10:37:31;;;;;;;26.17;4.18;;;15.60;99.90;;;;;;4992247;28;20175;-68
2023/03/30 10:39:58;;;;;;;34.60;4.50;;;15.30;99.90;;;;;;4991996;28;20169;-68
2023/03/30 10:42:27;;;;;;;27.08;4.43;;;15.50;99.90;;;;;;4993258;28;20168;-68
2023/03/30 10:44:59;;;;;;;24.45;4.15;;;15.30;99.90;;;;;;4992628;28;20199;-68
2023/03/30 10:47:31;;;;;;;32.75;5.07;;;15.70;99.90;;;;;;4993171;28;20179;-68
2023/03/30 10:50:03;;;;;;;23.73;4.35;;;15.80;99.90;;;;;;4991477;28;20187;-68
2023/03/30 10:52:48;;;;;;;26.23;5.35;;;17.20;99.90;;;;;;4991307;28;20175;-68
2023/03/30 10:55:21;;;;;;;23.58;4.85;;;17.70;99.90;;;;;;4992034;28;20175;-68
2023/03/30 10:58:06;;;;;;;26.25;5.53;;;17.30;99.90;;;;;;4992149;28;20185;-69
2023/03/30 11:00:50;;;;;;;33.65;5.15;;;16.90;99.90;;;;;;4992235;28;20171;-66
2023/03/30 11:03:23;;;;;;;20.85;4.00;;;17.20;99.90;;;;;;4974574;28;20550;-66
2023/03/30 11:05:51;;;;;;;32.00;5.18;;;17.20;99.90;;;;;;4992688;28;20855;-66
2023/03/30 11:08:27;;;;;;;34.92;5.15;;;16.80;99.90;;;;;;4983764;28;20206;-66
2023/03/30 11:10:55;;;;;;;35.72;5.72;;;16.30;99.90;;;;;;4978767;28;20720;-66
2023/03/30 11:13:33;;;;;;;35.55;5.72;;;16.60;99.90;;;;;;4984321;28;20168;-66
2023/03/30 11:16:26;;;;;;;31.38;5.35;;;16.20;99.90;;;;;;4991728;28;20205;-66
2023/03/30 11:19:16;;;;;;;29.13;5.32;;;19.00;99.90;;;;;;4964859;28;20180;-66
2023/03/30 11:21:52;;;;;;;29.83;5.78;;;18.70;99.90;;;;;;4980984;28;20643;-67
2023/03/30 11:24:25;;;;;;;30.40;5.25;;;17.50;99.90;;;;;;4984736;28;20201;-66
2023/03/30 11:27:05;;;;;;;26.55;4.82;;;18.10;99.90;;;;;;4982111;28;20229;-66
2023/03/30 11:29:52;;;;;;;30.92;4.97;;;17.70;99.90;;;;;;4991354;28;20527;-66
2023/03/30 11:32:39;;;;;;;26.55;4.57;;;17.60;99.90;;;;;;4991562;28;20254;-66
2023/03/30 11:35:32;;;;;;;23.67;4.95;;;18.90;99.90;;;;;;4991670;28;20634;-66
2023/03/30 11:38:27;;;;;;;26.98;4.93;;;19.80;99.90;;;;;;4991331;28;20176;-67
2023/03/30 11:41:00;;;;;;;28.85;5.45;;;21.10;99.90;;;;;;4985424;28;20175;-66
2023/03/30 11:43:29;;;;;;;20.58;4.75;;;21.60;99.90;;;;;;4991480;28;20217;-67
2023/03/30 11:46:06;;;;;;;22.10;5.18;;;21.40;99.90;;;;;;4970588;28;20178;-67
2023/03/30 11:48:53;;;;;;;22.42;4.78;;;21.80;99.90;;;;;;4982425;28;20241;-67
2023/03/30 11:51:34;;;;;;;27.38;5.10;;;20.90;99.90;;;;;;4990484;28;20229;-67
2023/03/30 11:54:03;;;;;;;32.72;5.28;;;20.10;99.90;;;;;;4972311;28;20195;-66
2023/03/30 11:56:52;;;;;;;27.33;4.90;;;19.50;99.90;;;;;;4954852;28;20226;-66
2023/03/30 11:59:31;;;;;;;28.45;5.10;;;17.90;99.90;;;;;;4972142;28;20180;-66
2023/03/30 12:02:19;;;;;;;29.33;5.43;;;17.80;99.90;;;;;;4972297;28;20171;-66
2023/03/30 12:04:48;;;;;;;30.33;5.50;;;18.20;99.90;;;;;;4979125;28;20198;-65
2023/03/30 12:07:37;;;;;;;26.38;4.32;;;18.40;99.90;;;;;;4989229;28;20209;-66
2023/03/30 12:10:08;;;;;;;23.42;4.35;;;19.50;99.90;;;;;;4991137;28;20226;-67
2023/03/30 12:12:37;;;;;;;25.30;4.47;;;20.80;99.90;;;;;;4991102;28;20642;-66
2023/03/30 12:15:22;;;;;;;30.50;5.53;;;21.50;99.90;;;;;;4973154;28;20179;-66
2023/03/30 12:17:53;;;;;;;28.52;4.80;;;22.10;99.90;;;;;;4991388;28;20174;-67
2023/03/30 12:20:24;;;;;;;19.23;4.88;;;23.20;99.90;;;;;;4991385;28;20215;-67
2023/03/30 12:22:56;;;;;;;17.00;4.35;;;23.20;99.90;;;;;;4990865;28;20183;-67
2023/03/30 12:25:58;;;;;;;15.10;3.80;;;22.60;99.90;;;;;;4975812;28;20175;-67
2023/03/30 12:28:25;;;;;;;17.55;4.40;;;22.40;99.90;;;;;;4971096;28;20211;-66
2023/03/30 12:30:59;;;;;;;16.67;3.70;;;22.40;99.90;;;;;;4971994;28;20168;-66
2023/03/30 12:33:27;;;;;;;18.13;4.13;;;21.30;99.90;;;;;;4971611;28;20661;-67
2023/03/30 12:35:58;;;;;;;16.35;4.00;;;20.70;99.90;;;;;;4954158;28;20220;-67
2023/03/30 12:38:37;;;;;;;16.42;3.47;;;20.20;99.90;;;;;;4971084;28;20168;-66
2023/03/30 12:41:17;;;;;;;23.52;4.25;;;19.20;99.90;;;;;;4978729;28;20182;-66
2023/03/30 12:43:45;;;;;;;21.48;4.07;;;20.10;99.90;;;;;;4990448;28;20238;-66
2023/03/30 12:46:19;;;;;;;21.83;4.00;;;20.80;99.90;;;;;;4989734;28;20175;-66
2023/03/30 12:48:56;;;;;;;20.52;4.72;;;19.90;99.90;;;;;;4975116;28;20686;-67
2023/03/30 12:51:44;;;;;;;18.83;3.63;;;20.50;99.90;;;;;;4973493;28;20180;-67
2023/03/30 12:54:47;;;;;;;23.70;5.05;;;19.80;99.90;;;;;;4990895;28;20226;-67
2023/03/30 12:57:24;;;;;;;24.63;4.32;;;18.90;99.90;;;;;;4990619;28;20685;-66
2023/03/30 13:00:28;;;;;;;24.02;4.72;;;18.40;99.90;;;;;;4989344;28;20233;-66
2023/03/30 13:02:59;;;;;;;33.35;4.22;;;18.40;99.90;;;;;;4990007;28;20250;-66
2023/03/30 13:05:29;;;;;;;29.80;4.13;;;18.30;99.90;;;;;;4990344;28;20672;-66